FW2348 Weather Reports


Display with metric or nautical units.
time (UTC)temp
F
wind
direction
speed
MPH
gust
MPH
rain 1hr
in
rain 24hr
in
rain mn
in
humidity
%
barometer
mb
20220627110015 58 331 11.0 15.0 0.00 0.25 0.20 73 1015.1
20220627104511 58 338 9.0 14.0 0.00 0.25 0.20 76 1014.9
20220627103009 57 5 10.0 16.0 0.01 0.25 0.20 79 1014.7
20220627101623 57 299 6.0 14.0 0.01 0.25 0.20 84 1014.5
20220627100008 57 317 9.0 15.0 0.01 0.25 0.20 86 1014.6
20220627094506 57 298 7.0 11.0 0.01 0.25 0.20 85 1014.5
20220627093008 56 313 1.0 10.0 0.00 0.24 0.19 85 1014.3
20220627091502 56 323 4.0 10.0 0.00 0.24 0.19 87 1014.2
20220627090058 55 336 6.0 11.0 0.00 0.24 0.19 87 1014.1
20220627084558 54 319 4.0 9.0 0.02 0.24 0.19 88 1013.9
20220627083056 54 327 3.0 8.0 0.02 0.24 0.19 89 1013.9
20220627081621 54 307 3.0 8.0 0.02 0.24 0.19 90 1013.7
20220627080052 52 360 3.0 13.0 0.02 0.24 0.19 90 1013.4
20220627074550 53 355 9.0 16.0 0.00 0.23 0.17 89 1013.4
20220627073051 54 308 2.0 5.0 0.00 0.23 0.17 90 1013.1
20220627071545 53 308 0.0 3.0 0.02 0.23 0.17 90 1013.0
20220627070044 52 315 2.0 5.0 0.04 0.23 0.17 90 1012.9
20220627064546 52 331 2.0 4.0 0.04 0.23 0.17 90 1012.8
20220627063040 51 330 2.0 10.0 0.04 0.23 0.17 89 1012.6
20220627061538 52 346 12.0 20.0 0.01 0.20 0.14 88 1012.5
20220627060038 53 319 4.0 9.0 0.00 0.19 0.13 90 1011.8
20220627054532 53 341 3.0 6.0 0.01 0.19 0.13 91 1011.5
20220627053029 53 321 0.0 2.0 0.02 0.19 0.13 91 1011.4
20220627051532 53 321 1.0 4.0 0.02 0.19 0.13 91 1011.4
20220627050025 53 339 5.0 11.0 0.02 0.19 0.13 91 1011.2
20220627044524 53 309 0.0 2.0 0.01 0.17 0.12 91 1011.1
20220627043022 52 268 0.0 1.0 0.00 0.17 0.11 91 1011.0
20220627041521 52 316 0.0 4.0 0.01 0.17 0.11 90 1010.9
20220627040019 52 301 1.0 6.0 0.06 0.17 0.11 90 1010.8
20220627034517 53 304 3.0 8.0 0.06 0.17 0.11 90 1010.7
20220627033016 53 292 2.0 6.0 0.06 0.17 0.11 90 1010.8
20220627031515 53 330 4.0 11.0 0.06 0.16 0.10 90 1010.8
20220627030011 53 264 0.0 2.0 0.02 0.11 0.06 90 1010.6
20220627024511 53 265 0.0 5.0 0.02 0.11 0.06 90 1010.7
20220627023010 53 323 0.0 3.0 0.02 0.10 0.05 90 1010.7
20220627021508 53 321 2.0 5.0 0.02 0.10 0.05 90 1010.7
20220627020007 53 340 1.0 4.0 0.00 0.09 0.03 90 1010.6
20220627014509 53 331 0.0 2.0 0.00 0.09 0.03 90 1010.5
20220627013010 53 305 0.0 4.0 0.00 0.09 0.03 90 1010.4
20220627011507 53 314 0.0 5.0 0.00 0.09 0.03 90 1010.5
20220627010002 53 338 0.0 3.0 0.00 0.09 0.03 90 1010.5
20220627004501 53 312 0.0 2.0 0.00 0.09 0.03 90 1010.5
20220627003105 53 132 0.0 1.0 0.01 0.09 0.03 89 1010.5
20220627001557 54 139 0.0 1.0 0.03 0.09 0.03 89 1010.5
20220627000055 54 291 0.0 1.0 0.03 0.09 0.03 89 1010.5
20220626234555 54 311 0.0 0.0 0.03 0.09 0.03 89 1010.5
20220626233054 54 310 0.0 5.0 0.02 0.08 0.02 89 1010.7
20220626231551 54 262 0.0 1.0 0.00 0.06 0.00 89 1010.6
20220626230049 54 264 0.0 3.0 0.00 0.06 0.00 89 1010.6
20220626224548 53 265 0.0 2.0 0.00 0.06 0.06 89 1010.5
20220626223047 53 259 0.0 0.0 0.00 0.06 0.06 89 1010.3
20220626221546 54 259 0.0 1.0 0.00 0.06 0.06 89 1010.4
20220626220056 54 259 0.0 1.0 0.00 0.06 0.06 89 1010.4
20220626214548 54 304 0.0 1.0 0.00 0.06 0.06 88 1010.5
20220626213045 54 304 0.0 0.0 0.00 0.06 0.06 88 1010.5
20220626211544 54 24 0.0 4.0 0.00 0.06 0.06 88 1010.5
20220626210043 54 264 0.0 1.0 0.00 0.06 0.06 88 1010.5
20220626204541 54 261 0.0 0.0 0.00 0.06 0.06 88 1010.3
20220626203044 55 305 0.0 2.0 0.00 0.06 0.06 88 1010.1
20220626201537 55 307 0.0 5.0 0.01 0.06 0.06 87 1009.9
20220626200037 55 302 0.0 3.0 0.01 0.06 0.06 87 1009.9
20220626194537 55 305 0.0 2.0 0.01 0.06 0.06 87 1009.9
20220626193047 56 331 0.0 3.0 0.03 0.06 0.06 86 1010.0
20220626191535 57 331 0.0 7.0 0.03 0.05 0.05 86 1009.8
20220626190037 57 291 0.0 2.0 0.03 0.05 0.05 85 1009.7
20220626184533 57 104 0.0 4.0 0.03 0.05 0.05 85 1009.6
20220626183030 58 157 0.0 7.0 0.01 0.02 0.02 84 1009.6
20220626181534 59 256 0.0 4.0 0.01 0.02 0.02 86 1009.3
20220626180034 57 344 3.0 11.0 0.02 0.02 0.02 85 1009.2
20220626174524 57 318 1.0 10.0 0.02 0.02 0.02 85 1009.1
20220626173022 57 317 5.0 12.0 0.01 0.01 0.01 84 1009.0
20220626171521 57 307 9.0 14.0 0.01 0.01 0.01 83 1009.0
20220626170019 59 300 8.0 15.0 0.00 0.00 0.00 81 1008.8
20220626164518 60 323 8.0 17.0 0.00 0.04 0.00 78 1008.8
20220626163017 61 303 0.0 5.0 0.00 0.04 0.00 74 1008.6
20220626161515 61 275 2.0 10.0 0.00 0.04 0.00 76 1008.7
20220626160014 60 327 5.0 11.0 0.00 0.04 0.00 77 1008.6
20220626154514 60 286 1.0 14.0 0.00 0.05 0.00 78 1008.5
20220626153013 62 297 4.0 12.0 0.00 0.05 0.00 74 1008.7
20220626151511 63 306 1.0 8.0 0.00 0.05 0.00 67 1008.4
20220626150114 63 120 1.0 5.0 0.00 0.05 0.00 70 1008.5
20220626144510 63 45 0.0 5.0 0.00 0.05 0.00 71 1008.5
20220626143008 62 238 1.0 10.0 0.00 0.05 0.00 70 1008.5
20220626141504 63 320 2.0 15.0 0.00 0.05 0.00 70 1008.3
20220626140002 63 239 1.0 8.0 0.00 0.05 0.00 70 1008.5
20220626134558 64 180 1.0 9.0 0.00 0.05 0.00 69 1008.3
20220626133056 64 91 1.0 5.0 0.00 0.05 0.00 69 1008.1
20220626131555 65 86 1.0 8.0 0.00 0.05 0.00 68 1008.0
20220626130054 65 320 0.0 8.0 0.00 0.05 0.00 67 1008.1
20220626124553 64 107 1.0 9.0 0.00 0.09 0.00 69 1008.0
20220626123052 65 277 1.0 10.0 0.00 0.09 0.00 67 1008.1
20220626121551 64 259 1.0 14.0 0.00 0.09 0.00 67 1007.7
20220626120049 67 42 2.0 12.0 0.00 0.09 0.00 65 1007.6
20220626114553 66 51 1.0 7.0 0.00 0.09 0.00 64 1007.6
20220626113047 66 163 1.0 10.0 0.00 0.09 0.00 65 1007.6
20220626111546 67 19 2.0 9.0 0.00 0.09 0.00 60 1007.5